Crawford, GA (30630)

09:49 AM EDT am 30. September 2014 (GMT -0400)
Wyndfield | Change Station
CLOSE
Current Station
Persönliche Wetterstationen
Location: Athens-Clarke County, GA
Höhe: 647 ft
Wetterstationen in der Umgebung

Höhe 647 ft 33.91 °N, 83.30 °W | Updated 41 seconds ago

Teils Wolkig
Teils Wolkig
66.3 °F
gefühlte 66.3 °F
N
0.0
Wind Wechselnd Wind aus Südwest
Gusts 0.0 mph

Heute
Max. -- | schwach -- °F
--% Regenrisiko
Gestern
Max. -- | schwach -- °F
Precip. -- inch
7:26 AM 7:18 PM
Erstes Viertel, 37% visible
Druck 29.99 inch
Sichtweite 6.0 Meilen
Wolken Wolkig 600 ft
Taupunkt 62 °F
Feuchtigkeit 86%
Regen 0.00 inch
Schneehöhe Nicht verfügbar..
UV 1 von 12
Pollen 6.00 von 12
Luftqualität Nicht verfügbar..
Flu Activity Nicht verfügbar..
SPECI KAHN 301331Z 30003KT 6SM BKN006 19/18 A2999 RMK AO2

More Conditions Fewer Conditions

Druck 29.99 inch
Sichtweite 6.0 Meilen
Wolken Wolkig 600 ft
Taupunkt 62 °F
Feuchtigkeit 86%
Regen 0.00 inch
Schneehöhe Nicht verfügbar..
UV 1 von 12
Pollen 6.00 von 12
Luftqualität Nicht verfügbar..
Flu Activity Nicht verfügbar..
SPECI KAHN 301331Z 30003KT 6SM BKN006 19/18 A2999 RMK AO2

More Conditions Fewer Conditions

10-Day Weather Forecast

Almanac

Astronomie

Sep. 30, 2014 Aufgang Untergang
Genaue Zeit 07:26 EDT 19:18 EDT
Bürgerliche Dämmerung 07:01 EDT 19:43 EDT
Nautische Dämmerung 06:32 EDT 20:12 EDT
Astronomische Dämmerung 06:03 EDT 20:41 EDT
Mond 13:21 EDT 23:59 EDT
Länge des sichtbaren Lichts 12h 41m
Tageslänge
11h 51m
Tomorrow will be 2m 5s shorter.
Erstes Viertel, 37% of the Moon is Illuminated
Heute
Erstes Viertel
Okt 1
Erstes Viertel
Okt 8
Vollmond
Okt 15
Letztes Viertel
Okt 23
Neu

Heutige Rekorde

State Highs State Lows

Community

WunderPhotos

Upload Photos

1,757,636 Fotos hochgeladen!

Nearby

Schneehöhe

Station Depth Höhe
Kein Neuschnee gemeldet.

Erdbebenaktivität

Stadt Distance Mag. Time & Date
No recent earthquake activity has been reported nearby.
Minimum magnitude displayed is 2.5.

küstennahe Wassertemperaturen

Ort Temperatur
Kein Stationsbericht

Wetterstationen in der Umgebung